createdAt,value
2023-04-17T00:00:08.467Z,2.10
2023-04-17T00:02:40.718Z,1.70
2023-04-17T00:05:09.575Z,1.90
2023-04-17T00:07:41.619Z,2.00
2023-04-17T00:10:10.292Z,2.30
2023-04-17T00:12:38.811Z,2.10
2023-04-17T00:15:08.046Z,1.70
2023-04-17T00:17:37.915Z,2.00
2023-04-17T00:20:12.676Z,1.90
2023-04-17T00:22:41.035Z,2.10
2023-04-17T00:25:13.138Z,2.00
2023-04-17T00:27:42.924Z,1.70
2023-04-17T00:30:11.487Z,1.60
2023-04-17T00:32:41.653Z,2.10
2023-04-17T00:35:10.187Z,2.10
2023-04-17T00:37:38.427Z,1.80
2023-04-17T00:40:07.188Z,1.60
2023-04-17T00:42:36.151Z,1.90
2023-04-17T00:45:05.625Z,1.50
2023-04-17T00:47:33.804Z,1.60
2023-04-17T00:50:02.996Z,1.70
2023-04-17T00:52:31.655Z,1.60
2023-04-17T00:55:00.592Z,1.70
2023-04-17T00:57:28.979Z,1.40
2023-04-17T00:59:57.852Z,1.70
2023-04-17T01:02:27.040Z,1.90
2023-04-17T01:04:55.975Z,1.70
2023-04-17T01:07:24.631Z,1.50
2023-04-17T01:09:52.884Z,1.70
2023-04-17T01:12:24.755Z,1.40
2023-04-17T01:14:54.005Z,1.20
2023-04-17T01:17:22.323Z,1.60
2023-04-17T01:19:50.927Z,1.40
2023-04-17T01:22:22.273Z,1.60
2023-04-17T01:24:52.344Z,1.50
2023-04-17T01:27:22.808Z,1.60
2023-04-17T01:29:51.073Z,1.40
2023-04-17T01:32:19.748Z,1.90
2023-04-17T01:34:47.985Z,1.50
2023-04-17T01:37:16.401Z,1.70
2023-04-17T01:39:44.666Z,1.30
2023-04-17T01:42:12.903Z,1.70
2023-04-17T01:44:41.010Z,1.70
2023-04-17T01:47:09.256Z,1.50
2023-04-17T01:49:37.505Z,1.70
2023-04-17T01:52:06.398Z,1.70
2023-04-17T01:54:35.681Z,1.70
2023-04-17T01:57:03.964Z,1.80
2023-04-17T01:59:32.997Z,1.50
2023-04-17T02:02:01.632Z,1.40
2023-04-17T02:04:30.253Z,1.30
2023-04-17T02:06:58.438Z,1.50
2023-04-17T02:09:27.219Z,1.50
2023-04-17T02:11:56.412Z,1.50
2023-04-17T02:14:25.074Z,1.40
2023-04-17T02:16:53.979Z,2.10
2023-04-17T02:19:23.117Z,1.50
2023-04-17T02:21:51.470Z,1.70
2023-04-17T02:24:19.506Z,1.70
2023-04-17T02:26:47.801Z,1.40
2023-04-17T02:29:16.069Z,1.50
2023-04-17T02:31:44.270Z,1.80
2023-04-17T02:34:12.858Z,1.60
2023-04-17T02:36:41.693Z,2.00
2023-04-17T02:39:10.265Z,1.40
2023-04-17T02:41:41.155Z,1.80
2023-04-17T02:44:09.667Z,1.50
2023-04-17T02:46:38.318Z,1.70
2023-04-17T02:49:07.754Z,1.60
2023-04-17T02:51:36.213Z,1.60
2023-04-17T02:54:04.669Z,2.30
2023-04-17T02:56:33.387Z,2.40
2023-04-17T02:59:01.480Z,1.60
2023-04-17T03:01:30.097Z,1.40
2023-04-17T03:03:58.583Z,1.70
2023-04-17T03:06:27.514Z,1.80
2023-04-17T03:08:55.952Z,1.50
2023-04-17T03:11:24.176Z,1.70
2023-04-17T03:13:52.601Z,2.30
2023-04-17T03:16:20.820Z,1.40
2023-04-17T03:18:49.065Z,1.40
2023-04-17T03:21:17.315Z,1.40
2023-04-17T03:23:45.534Z,1.30
2023-04-17T03:26:14.414Z,1.40
2023-04-17T03:28:43.089Z,1.60
2023-04-17T03:31:11.364Z,1.70
2023-04-17T03:33:39.927Z,1.60
2023-04-17T03:36:09.108Z,1.70
2023-04-17T03:38:37.885Z,1.60
2023-04-17T03:41:07.200Z,1.40
2023-04-17T03:43:35.402Z,1.50
2023-04-17T03:46:03.530Z,1.60
2023-04-17T03:48:32.035Z,1.40
2023-04-17T03:51:00.289Z,1.60
2023-04-17T03:53:31.095Z,1.80
2023-04-17T03:56:01.583Z,1.60
2023-04-17T03:58:33.181Z,1.10
2023-04-17T04:01:02.201Z,2.50
2023-04-17T04:03:32.881Z,2.20
2023-04-17T04:06:01.952Z,1.70
2023-04-17T04:08:30.448Z,1.50
2023-04-17T04:11:00.237Z,1.50
2023-04-17T04:13:35.555Z,1.60
2023-04-17T04:16:04.520Z,1.80
2023-04-17T04:18:33.839Z,1.70
2023-04-17T04:21:02.495Z,2.00
2023-04-17T04:23:33.844Z,1.50
2023-04-17T04:26:02.234Z,2.10
2023-04-17T04:28:36.368Z,1.90
2023-04-17T04:31:04.721Z,1.70
2023-04-17T04:33:37.996Z,1.60
2023-04-17T04:36:06.460Z,2.00
2023-04-17T04:38:36.055Z,1.60
2023-04-17T04:41:20.115Z,1.60
2023-04-17T04:43:48.206Z,1.60
2023-04-17T04:46:16.564Z,1.60
2023-04-17T04:48:46.722Z,1.50
2023-04-17T04:51:15.027Z,1.60
2023-04-17T04:53:43.723Z,1.90
2023-04-17T04:56:13.076Z,2.10
2023-04-17T04:58:41.358Z,1.60
2023-04-17T05:01:11.507Z,2.20
2023-04-17T05:03:47.640Z,2.20
2023-04-17T05:06:22.335Z,1.50
2023-04-17T05:08:55.076Z,1.90
2023-04-17T05:11:23.322Z,2.00
2023-04-17T05:13:51.466Z,1.60
2023-04-17T05:16:24.477Z,2.20
2023-04-17T05:18:52.738Z,2.20
2023-04-17T05:21:29.810Z,1.70
2023-04-17T05:23:59.421Z,1.60
2023-04-17T05:26:29.340Z,1.70
2023-04-17T05:28:57.686Z,1.70
2023-04-17T05:31:28.033Z,1.80
2023-04-17T05:33:57.099Z,1.70
2023-04-17T05:36:27.542Z,1.60
2023-04-17T05:38:57.850Z,1.90
2023-04-17T05:41:31.048Z,1.80
2023-04-17T05:43:59.283Z,1.70
2023-04-17T05:46:28.883Z,1.50
2023-04-17T05:48:57.444Z,1.60
2023-04-17T05:51:26.627Z,1.70
2023-04-17T05:53:58.910Z,2.10
2023-04-17T05:56:27.293Z,1.90
2023-04-17T05:58:59.447Z,1.80
2023-04-17T06:01:30.261Z,1.60
2023-04-17T06:04:06.133Z,1.80
2023-04-17T06:06:35.028Z,2.30
2023-04-17T06:09:07.291Z,2.20
2023-04-17T06:11:35.674Z,1.90
2023-04-17T06:14:09.917Z,1.70
2023-04-17T06:19:08.425Z,3.00
2023-04-17T06:21:41.643Z,2.00
2023-04-17T06:24:12.488Z,2.00
2023-04-17T06:26:49.021Z,2.20
2023-04-17T06:29:17.450Z,2.20
2023-04-17T06:31:46.672Z,2.20
2023-04-17T06:34:28.653Z,2.10
2023-04-17T06:37:01.112Z,2.00
2023-04-17T06:39:31.807Z,2.30
2023-04-17T06:42:02.605Z,2.10
2023-04-17T06:44:31.134Z,2.30
2023-04-17T06:47:05.474Z,2.40
2023-04-17T06:49:33.740Z,2.40
2023-04-17T06:52:02.120Z,1.90
2023-04-17T06:54:30.510Z,2.70
2023-04-17T06:56:58.791Z,2.10
2023-04-17T06:59:27.224Z,2.00
2023-04-17T07:01:55.683Z,1.80
2023-04-17T07:04:24.111Z,2.00
2023-04-17T07:06:52.333Z,2.50
2023-04-17T07:09:20.813Z,1.90
2023-04-17T07:11:49.085Z,2.20
2023-04-17T07:14:20.403Z,1.90
2023-04-17T07:16:48.843Z,2.10
2023-04-17T07:19:17.159Z,2.80
2023-04-17T07:21:45.327Z,2.00
2023-04-17T07:24:17.536Z,2.40
2023-04-17T07:26:46.925Z,1.80
2023-04-17T07:29:15.847Z,1.80
2023-04-17T07:31:44.371Z,2.00
2023-04-17T07:34:12.751Z,1.70
2023-04-17T07:36:44.324Z,1.80
2023-04-17T07:39:12.895Z,2.00
2023-04-17T07:41:41.494Z,1.80
2023-04-17T07:44:11.402Z,2.10
2023-04-17T07:46:39.859Z,2.20
2023-04-17T07:49:11.467Z,2.10
2023-04-17T07:51:41.703Z,2.30
2023-04-17T07:54:10.183Z,2.00
2023-04-17T07:56:38.614Z,2.30
2023-04-17T07:59:06.892Z,2.20
2023-04-17T08:01:35.877Z,2.20
2023-04-17T08:04:05.469Z,2.30
2023-04-17T08:06:34.225Z,2.20
2023-04-17T08:09:03.052Z,2.40
2023-04-17T08:11:33.069Z,2.40
2023-04-17T08:14:04.089Z,2.40
2023-04-17T08:16:33.650Z,2.60
2023-04-17T08:19:02.276Z,2.00
2023-04-17T08:21:31.380Z,2.00
2023-04-17T08:24:37.506Z,2.10
2023-04-17T08:27:17.595Z,2.30
2023-04-17T08:29:57.195Z,2.10
2023-04-17T08:32:28.561Z,2.20
2023-04-17T08:34:58.099Z,2.20
2023-04-17T08:37:28.353Z,2.30
2023-04-17T08:39:59.439Z,2.30
2023-04-17T08:42:27.700Z,1.90
2023-04-17T08:45:05.487Z,1.90
2023-04-17T08:47:37.110Z,2.70
2023-04-17T08:50:09.571Z,2.60
2023-04-17T08:52:46.590Z,2.20
2023-04-17T08:55:22.575Z,1.90
2023-04-17T08:58:04.406Z,1.90
2023-04-17T09:00:34.365Z,2.60
2023-04-17T09:03:05.784Z,2.00
2023-04-17T09:05:37.745Z,3.00
2023-04-17T09:08:24.394Z,2.20
2023-04-17T09:10:54.068Z,2.10
2023-04-17T09:13:25.230Z,2.00
2023-04-17T09:16:16.257Z,1.80
2023-04-17T09:18:49.594Z,1.80
2023-04-17T09:21:21.132Z,1.60
2023-04-17T09:23:56.314Z,2.00
2023-04-17T09:26:28.377Z,1.50
2023-04-17T09:29:11.300Z,1.70
2023-04-17T09:31:43.685Z,1.60
2023-04-17T09:34:17.068Z,1.40
2023-04-17T09:36:48.558Z,1.70
2023-04-17T09:39:24.606Z,2.00
2023-04-17T09:42:03.597Z,1.70
2023-04-17T09:44:40.647Z,2.80
2023-04-17T09:47:08.962Z,2.20
2023-04-17T09:49:45.492Z,1.80
2023-04-17T09:52:15.955Z,2.00
2023-04-17T09:54:44.622Z,1.50
2023-04-17T09:57:17.589Z,1.80
2023-04-17T09:59:53.186Z,1.60
2023-04-17T10:02:25.880Z,1.60
2023-04-17T10:05:00.210Z,1.70
2023-04-17T10:07:30.306Z,1.50
2023-04-17T10:10:01.235Z,1.60
2023-04-17T10:12:29.810Z,1.70
2023-04-17T10:14:58.285Z,1.90
2023-04-17T10:17:28.967Z,1.40
2023-04-17T10:20:17.682Z,1.80
2023-04-17T10:22:54.333Z,1.40
2023-04-17T10:25:22.823Z,1.40
2023-04-17T10:27:55.296Z,1.70
2023-04-17T10:30:24.782Z,1.50
2023-04-17T10:33:12.518Z,1.40
2023-04-17T10:35:40.897Z,1.40
2023-04-17T10:38:09.183Z,1.50
2023-04-17T10:40:38.779Z,1.30
2023-04-17T10:43:11.356Z,1.50
2023-04-17T10:45:55.088Z,1.50
2023-04-17T10:48:31.271Z,1.30
2023-04-17T10:51:01.009Z,1.60
2023-04-17T10:53:43.666Z,1.60
2023-04-17T10:56:31.288Z,1.40
2023-04-17T10:59:04.405Z,1.50
2023-04-17T11:01:48.709Z,1.40
2023-04-17T11:04:31.056Z,1.40
2023-04-17T11:07:00.459Z,1.50
2023-04-17T11:09:29.801Z,1.90
2023-04-17T11:11:59.806Z,1.60
2023-04-17T11:14:34.725Z,1.90
2023-04-17T11:17:03.275Z,1.60
2023-04-17T11:19:32.226Z,1.80
2023-04-17T11:22:04.231Z,1.80
2023-04-17T11:24:33.570Z,2.00
2023-04-17T11:27:06.975Z,1.60
2023-04-17T11:29:36.038Z,1.40
2023-04-17T11:32:04.967Z,1.30
2023-04-17T11:34:33.486Z,1.30
2023-04-17T11:37:16.794Z,1.60
2023-04-17T11:39:47.476Z,1.70
2023-04-17T11:42:26.970Z,1.30
2023-04-17T11:45:07.214Z,1.70
2023-04-17T11:47:35.849Z,1.50
2023-04-17T11:50:04.703Z,1.20
2023-04-17T11:52:33.219Z,1.40
2023-04-17T11:55:02.620Z,1.30
2023-04-17T11:57:43.487Z,1.50
2023-04-17T12:00:14.818Z,1.30
2023-04-17T12:02:47.424Z,1.60
2023-04-17T12:05:21.560Z,1.30
2023-04-17T12:08:04.590Z,1.30
2023-04-17T12:11:02.623Z,1.50
2023-04-17T12:13:35.698Z,1.50
2023-04-17T12:16:06.884Z,2.00
2023-04-17T12:18:35.161Z,1.90
2023-04-17T12:21:09.991Z,1.80
2023-04-17T12:23:38.909Z,1.90
2023-04-17T12:26:11.232Z,2.20
2023-04-17T12:28:50.203Z,1.90
2023-04-17T12:31:21.102Z,1.60
2023-04-17T12:33:52.726Z,1.90
2023-04-17T12:36:21.119Z,1.50
2023-04-17T12:38:49.474Z,1.80
2023-04-17T12:41:21.490Z,1.50
2023-04-17T12:43:49.929Z,1.60
2023-04-17T12:46:21.849Z,2.20
2023-04-17T12:48:55.885Z,1.50
2023-04-17T12:51:28.446Z,2.20
2023-04-17T12:54:00.698Z,1.90
2023-04-17T12:56:29.436Z,2.00
2023-04-17T12:59:02.891Z,1.40
2023-04-17T13:01:38.907Z,1.60
2023-04-17T13:04:07.877Z,1.40
2023-04-17T13:06:36.859Z,1.90
2023-04-17T13:09:05.102Z,2.40
2023-04-17T13:11:33.406Z,1.60
2023-04-17T13:14:01.674Z,1.70
2023-04-17T13:16:30.297Z,1.40
2023-04-17T13:18:58.861Z,1.30
2023-04-17T13:21:30.157Z,1.30
2023-04-17T13:24:01.661Z,1.50
2023-04-17T13:26:39.189Z,1.40
2023-04-17T13:29:32.384Z,1.60
2023-04-17T13:32:10.350Z,1.50
2023-04-17T13:34:43.328Z,1.80
2023-04-17T13:37:11.547Z,1.40
2023-04-17T13:39:39.708Z,1.70
2023-04-17T13:42:08.174Z,1.70
2023-04-17T13:44:39.867Z,1.70
2023-04-17T13:47:14.169Z,2.00
2023-04-17T13:49:42.549Z,1.90
2023-04-17T13:52:11.008Z,2.00
2023-04-17T13:54:41.328Z,1.80
2023-04-17T13:57:10.681Z,1.90
2023-04-17T13:59:39.010Z,2.00
2023-04-17T14:02:07.281Z,2.40
2023-04-17T14:04:38.300Z,2.00
2023-04-17T14:07:06.891Z,2.10
2023-04-17T14:09:35.253Z,2.20
2023-04-17T14:12:03.930Z,1.70
2023-04-17T14:14:33.172Z,1.70
2023-04-17T14:17:02.586Z,2.60
2023-04-17T14:19:32.240Z,1.70
2023-04-17T14:22:05.379Z,1.80
2023-04-17T14:24:34.250Z,1.70
2023-04-17T14:27:05.750Z,2.00
2023-04-17T14:29:34.564Z,1.90
2023-04-17T14:32:03.585Z,1.80
2023-04-17T14:34:31.852Z,1.50
2023-04-17T14:37:00.287Z,1.90
2023-04-17T14:39:33.158Z,1.90
2023-04-17T14:42:02.329Z,2.30
2023-04-17T14:44:31.238Z,2.00
2023-04-17T14:46:59.503Z,2.10
2023-04-17T14:49:30.905Z,1.80
2023-04-17T14:51:59.186Z,1.90
2023-04-17T14:54:27.393Z,2.00
2023-04-17T14:56:56.431Z,1.70
2023-04-17T14:59:26.637Z,2.00
2023-04-17T15:01:58.082Z,1.90
2023-04-17T15:04:27.434Z,2.00
2023-04-17T15:06:55.804Z,1.60
2023-04-17T15:09:26.752Z,1.70
2023-04-17T15:11:56.686Z,1.80
2023-04-17T15:14:26.637Z,1.90
2023-04-17T15:16:54.987Z,1.70
2023-04-17T15:19:23.357Z,2.10
2023-04-17T15:21:52.991Z,1.70
2023-04-17T15:24:21.292Z,2.10
2023-04-17T15:26:51.327Z,2.20
2023-04-17T15:29:19.770Z,2.50
2023-04-17T15:31:48.088Z,2.10
2023-04-17T15:34:16.252Z,2.00
2023-04-17T15:36:44.458Z,1.80
2023-04-17T15:39:12.812Z,2.00
2023-04-17T15:41:40.978Z,1.60
2023-04-17T15:44:09.192Z,1.90
2023-04-17T15:46:37.690Z,2.40
2023-04-17T15:49:09.245Z,2.30
2023-04-17T15:51:41.481Z,2.00
2023-04-17T15:54:12.127Z,1.70
2023-04-17T15:56:40.413Z,1.90
2023-04-17T15:59:08.579Z,1.90
2023-04-17T16:01:37.480Z,2.00
2023-04-17T16:04:06.124Z,2.50
2023-04-17T16:06:35.310Z,2.30
2023-04-17T16:09:04.179Z,1.90
2023-04-17T16:11:32.384Z,2.90
2023-04-17T16:14:00.556Z,2.50
2023-04-17T16:16:29.577Z,3.40
2023-04-17T16:18:57.949Z,2.30
2023-04-17T16:21:26.919Z,2.80
2023-04-17T16:23:55.554Z,2.30
2023-04-17T16:26:23.744Z,2.80
2023-04-17T16:28:51.914Z,2.40
2023-04-17T16:31:21.436Z,2.20
2023-04-17T16:33:49.547Z,2.20
2023-04-17T16:36:17.669Z,2.20
2023-04-17T16:38:45.840Z,2.70
2023-04-17T16:41:13.985Z,2.30
2023-04-17T16:43:42.754Z,2.40
2023-04-17T16:46:22.129Z,2.10
2023-04-17T16:48:56.864Z,2.10
2023-04-17T16:51:25.127Z,2.50
2023-04-17T16:53:53.530Z,2.30
2023-04-17T16:56:21.734Z,2.30
2023-04-17T16:58:50.037Z,2.40
2023-04-17T17:01:18.421Z,2.60
2023-04-17T17:03:46.729Z,2.30
2023-04-17T17:06:14.930Z,3.10
2023-04-17T17:08:46.800Z,2.30
2023-04-17T17:11:15.605Z,2.60
2023-04-17T17:13:50.932Z,2.90
2023-04-17T17:16:20.921Z,2.60
2023-04-17T17:18:49.238Z,2.70
2023-04-17T17:21:17.661Z,2.30
2023-04-17T17:23:45.852Z,2.40
2023-04-17T17:26:14.095Z,2.40
2023-04-17T17:28:42.708Z,2.30
2023-04-17T17:31:11.434Z,2.70
2023-04-17T17:33:39.533Z,2.50
2023-04-17T17:36:09.097Z,2.80
2023-04-17T17:38:37.973Z,3.70
2023-04-17T17:41:07.562Z,2.80
2023-04-17T17:43:37.658Z,3.20
2023-04-17T17:46:05.927Z,3.00
2023-04-17T17:48:35.080Z,3.40
2023-04-17T17:51:03.193Z,3.20
2023-04-17T17:53:32.506Z,3.70
2023-04-17T17:56:00.853Z,3.20
2023-04-17T17:58:29.355Z,4.20
2023-04-17T18:00:57.606Z,4.00
2023-04-17T18:03:26.104Z,3.20
2023-04-17T18:05:54.505Z,3.10
2023-04-17T18:08:22.788Z,3.10
2023-04-17T18:10:51.176Z,2.70
2023-04-17T18:13:19.499Z,2.40
2023-04-17T18:15:47.646Z,3.50
2023-04-17T18:18:15.966Z,2.50
2023-04-17T18:20:44.134Z,2.50
2023-04-17T18:23:12.256Z,2.60
2023-04-17T18:25:40.716Z,3.00
2023-04-17T18:28:08.894Z,2.50
2023-04-17T18:30:37.099Z,3.90
2023-04-17T18:33:05.456Z,2.90
2023-04-17T18:35:33.796Z,3.50
2023-04-17T18:38:02.078Z,2.50
2023-04-17T18:40:30.926Z,3.40
2023-04-17T18:42:59.288Z,3.50
2023-04-17T18:45:28.066Z,2.70
2023-04-17T18:47:56.731Z,3.20
2023-04-17T18:50:27.042Z,3.20
2023-04-17T18:52:55.229Z,4.70
2023-04-17T18:55:23.549Z,3.60
2023-04-17T18:57:51.827Z,4.20
2023-04-17T19:00:20.443Z,3.50
2023-04-17T19:02:48.685Z,3.20
2023-04-17T19:05:17.368Z,2.60
2023-04-17T19:07:45.695Z,2.50
2023-04-17T19:10:13.796Z,2.60
2023-04-17T19:12:43.324Z,2.50
2023-04-17T19:15:11.576Z,3.90
2023-04-17T19:17:41.175Z,2.60
2023-04-17T19:20:09.610Z,2.50
2023-04-17T19:22:37.991Z,3.50
2023-04-17T19:25:06.420Z,3.30
2023-04-17T19:27:35.014Z,3.10
2023-04-17T19:30:03.825Z,2.60
2023-04-17T19:32:32.432Z,2.90
2023-04-17T19:35:00.610Z,2.70
2023-04-17T19:37:29.231Z,2.40
2023-04-17T19:39:57.424Z,2.40
2023-04-17T19:42:25.801Z,2.70
2023-04-17T19:44:54.067Z,3.10
2023-04-17T19:47:24.191Z,2.10
2023-04-17T19:49:52.388Z,2.70
2023-04-17T19:52:20.853Z,2.40
2023-04-17T19:54:49.005Z,2.80
2023-04-17T19:57:17.947Z,2.90
2023-04-17T19:59:46.050Z,3.30
2023-04-17T20:02:16.050Z,3.60
2023-04-17T20:04:45.585Z,3.50
2023-04-17T20:07:13.808Z,2.80
2023-04-17T20:09:42.842Z,3.30
2023-04-17T20:12:11.119Z,3.00
2023-04-17T20:14:39.320Z,3.00
2023-04-17T20:17:07.738Z,3.40
2023-04-17T20:19:36.224Z,2.70
2023-04-17T20:22:04.322Z,2.70
2023-04-17T20:24:32.415Z,2.90
2023-04-17T20:27:02.035Z,3.20
2023-04-17T20:29:31.458Z,3.00
2023-04-17T20:32:00.769Z,3.30
2023-04-17T20:34:35.075Z,3.20
2023-04-17T20:37:03.192Z,2.40
2023-04-17T20:39:32.233Z,3.10
2023-04-17T20:42:02.302Z,3.10
2023-04-17T20:44:32.211Z,2.60
2023-04-17T20:47:00.338Z,3.20
2023-04-17T20:49:28.396Z,2.80
2023-04-17T20:51:57.026Z,3.10
2023-04-17T20:54:26.343Z,3.20
2023-04-17T20:56:54.482Z,3.50
2023-04-17T20:59:22.605Z,2.90
2023-04-17T21:01:52.463Z,3.00
2023-04-17T21:04:21.927Z,3.00
2023-04-17T21:06:50.364Z,3.30
2023-04-17T21:09:18.456Z,3.40
2023-04-17T21:11:47.767Z,3.10
2023-04-17T21:14:16.257Z,2.50
2023-04-17T21:16:45.564Z,2.50
2023-04-17T21:19:14.373Z,3.10
2023-04-17T21:21:42.489Z,2.80
2023-04-17T21:24:11.461Z,2.80
2023-04-17T21:26:39.771Z,3.10
2023-04-17T21:29:08.752Z,2.90
2023-04-17T21:31:36.856Z,3.40
2023-04-17T21:34:05.056Z,2.50
2023-04-17T21:36:33.334Z,2.90
2023-04-17T21:39:01.983Z,2.70
2023-04-17T21:41:32.042Z,2.70
2023-04-17T21:44:02.665Z,2.80
2023-04-17T21:46:30.786Z,2.80
2023-04-17T21:48:59.025Z,2.50
2023-04-17T21:51:27.412Z,2.30
2023-04-17T21:53:55.489Z,3.20
2023-04-17T21:56:24.187Z,3.10
2023-04-17T21:58:52.472Z,3.00
2023-04-17T22:01:20.636Z,2.70
2023-04-17T22:03:48.846Z,2.50
2023-04-17T22:06:16.910Z,2.80
2023-04-17T22:08:45.626Z,3.60
2023-04-17T22:11:13.698Z,2.50
2023-04-17T22:13:42.971Z,2.90
2023-04-17T22:16:11.017Z,3.00
2023-04-17T22:18:39.139Z,3.30
2023-04-17T22:21:07.587Z,2.60
2023-04-17T22:23:35.708Z,2.60
2023-04-17T22:26:03.950Z,2.70
2023-04-17T22:28:32.131Z,3.00
2023-04-17T22:31:00.818Z,3.20
2023-04-17T22:33:29.223Z,3.00
2023-04-17T22:35:57.444Z,2.90
2023-04-17T22:38:25.603Z,3.20
2023-04-17T22:40:54.814Z,2.60
2023-04-17T22:43:23.365Z,2.60
2023-04-17T22:45:51.582Z,2.60
2023-04-17T22:48:20.183Z,2.90
2023-04-17T22:50:49.353Z,3.00
2023-04-17T22:53:19.512Z,3.20
2023-04-17T22:55:47.726Z,3.10
2023-04-17T22:58:16.131Z,2.90
2023-04-17T23:00:44.231Z,2.70
2023-04-17T23:03:12.523Z,2.80
2023-04-17T23:05:41.087Z,2.50
2023-04-17T23:08:09.235Z,2.90
2023-04-17T23:10:37.412Z,3.10
2023-04-17T23:13:05.657Z,3.10
2023-04-17T23:15:34.099Z,2.80
2023-04-17T23:18:02.246Z,2.70
2023-04-17T23:20:30.467Z,3.10
2023-04-17T23:22:58.796Z,2.40
2023-04-17T23:25:26.871Z,2.90
2023-04-17T23:27:54.944Z,2.80
2023-04-17T23:30:23.192Z,2.90
2023-04-17T23:32:53.769Z,2.30
2023-04-17T23:35:22.268Z,2.50
2023-04-17T23:37:51.826Z,2.60
2023-04-17T23:40:20.014Z,3.10
2023-04-17T23:42:48.274Z,2.80
2023-04-17T23:45:16.496Z,3.40
2023-04-17T23:47:44.645Z,2.70
2023-04-17T23:50:12.872Z,3.00
2023-04-17T23:52:40.985Z,2.90
2023-04-17T23:55:09.240Z,2.60
2023-04-17T23:57:38.853Z,3.00
